Terminal Aerodrome Forecast
Issued by NWS

Home | Current Version | Previous Version | Text Only | Print | Product List | Glossary On
Versions: 1 2 3 4 5 6 7 8 9 10 11 12 13
000
FTUS44 KEPZ 272321
TAFDMN
TAF
KDMN 272321Z 2800/2824 27014G22KT P6SM BKN150 OVC250
     FM280200 25009G19KT P6SM SCT090 OVC150
     FM281500 25018G25KT P6SM SCT090 OVC140
     FM281800 26028G37KT P6SM BKN090
     FM281900 26031G40KT 6SM BLDU BKN080=

USA.gov is the U.S. government's official web portal to all federal, state and local government web resources and services.